Time;durP1;ratioP1;P1;durP2;ratioP2;P2;SDS_P1;SDS_P2;PMS_P1;PMS_P2;Temp;Humidity;BMP_temperature;BMP_pressure;BME280_temperature;BME280_humidity;BME280_pressure;Samples;Min_cycle;Max_cycle;Signal;HPM_P1;HPM_P2
2022/12/05 00:01:47;;;;;;;;;;;;;;;2.78;83.82;100602.47;5034037;28;20388;-72
2022/12/05 00:04:50;;;;;;;15.32;12.43;;;;;;;2.85;83.11;100601.47;5032953;28;19979;-72
2022/12/05 00:07:54;;;;;;;14.80;11.93;;;;;;;2.66;83.92;100602.69;5033626;28;20394;-72
2022/12/05 00:10:57;;;;;;;16.10;12.32;;;;;;;2.43;84.42;100606.56;5033602;28;20128;-72
2022/12/05 00:14:02;;;;;;;15.85;11.45;;;;;;;2.60;84.27;100610.56;5033419;28;20460;-72
2022/12/05 00:17:05;;;;;;;16.83;12.82;;;;;;;2.49;84.62;100611.59;5033313;28;20044;-72
2022/12/05 00:20:08;;;;;;;16.67;12.23;;;;;;;2.41;84.48;100610.88;5033201;28;20040;-72
2022/12/05 00:23:12;;;;;;;15.93;11.85;;;;;;;2.54;84.77;100609.78;5033094;28;20470;-72
2022/12/05 00:26:15;;;;;;;16.92;13.00;;;;;;;2.61;83.84;100609.66;5033159;28;20048;-72
2022/12/05 00:29:18;;;;;;;19.08;12.90;;;;;;;2.54;84.53;100611.50;5033159;28;20271;-72
2022/12/05 00:32:22;;;;;;;16.17;11.13;;;;;;;2.64;83.93;100612.19;5032873;28;20131;-72
2022/12/05 00:35:25;;;;;;;16.05;11.60;;;;;;;2.59;84.12;100614.03;5032967;28;20506;-73
2022/12/05 00:38:29;;;;;;;15.10;11.80;;;;;;;2.52;84.70;100608.97;5032703;28;20091;-72
2022/12/05 00:41:32;;;;;;;14.93;11.10;;;;;;;2.47;85.04;100620.25;5032994;28;20398;-72
2022/12/05 00:44:36;;;;;;;14.57;10.90;;;;;;;2.70;83.85;100614.66;5033029;28;20060;-72
2022/12/05 00:47:39;;;;;;;15.15;11.10;;;;;;;2.59;83.63;100611.44;5032658;28;20076;-72
2022/12/05 00:50:42;;;;;;;16.58;12.18;;;;;;;2.51;84.34;100612.41;5032668;28;20040;-72
2022/12/05 00:53:46;;;;;;;16.17;11.45;;;;;;;2.64;83.63;100619.94;5032494;28;20099;-72
2022/12/05 00:56:54;;;;;;;15.20;11.48;;;;;;;2.62;83.47;100617.41;5032572;28;20039;-72
2022/12/05 00:59:58;;;;;;;16.13;10.27;;;;;;;2.65;83.85;100629.38;5032441;28;20067;-72
2022/12/05 01:03:01;;;;;;;;;;;;;;;2.49;83.96;100629.69;5032466;28;20418;-72
2022/12/05 01:06:05;;;;;;;14.18;10.82;;;;;;;2.48;84.08;100632.25;5032704;28;20361;-72
2022/12/05 01:09:11;;;;;;;13.43;10.18;;;;;;;2.62;83.11;100632.88;5032397;28;20044;-72
2022/12/05 01:12:14;;;;;;;15.30;12.23;;;;;;;2.36;84.22;100638.47;5032371;28;20469;-72
2022/12/05 01:15:17;;;;;;;12.95;9.63;;;;;;;2.31;85.18;100640.28;4691006;28;10000107;-72
2022/12/05 01:18:22;;;;;;;11.70;8.90;;;;;;;2.23;85.50;100644.72;5047941;28;20118;-72
2022/12/05 01:21:25;;;;;;;12.60;10.07;;;;;;;2.33;84.98;100647.16;5048368;28;20472;-72
2022/12/05 01:24:29;;;;;;;13.65;10.30;;;;;;;2.38;84.88;100651.38;5048426;28;20839;-72
2022/12/05 01:27:32;;;;;;;11.77;9.68;;;;;;;2.32;84.72;100652.31;5048080;28;20052;-72
2022/12/05 01:30:38;;;;;;;12.82;9.82;;;;;;;2.44;85.00;100652.13;5048577;28;20255;-72
2022/12/05 01:33:42;;;;;;;14.75;10.45;;;;;;;2.41;84.45;100659.06;5048285;28;20429;-72
2022/12/05 01:36:46;;;;;;;12.45;9.75;;;;;;;2.26;85.26;100662.72;5048068;28;20051;-72
2022/12/05 01:39:52;;;;;;;11.65;8.73;;;;;;;2.27;85.38;100667.03;5047861;28;20365;-72
2022/12/05 01:42:55;;;;;;;12.05;9.25;;;;;;;2.43;84.30;100659.91;5048535;28;20103;-71
2022/12/05 01:45:59;;;;;;;11.57;9.57;;;;;;;2.47;84.42;100667.56;5048044;28;20067;-71
2022/12/05 01:49:14;;;;;;;10.98;8.40;;;;;;;2.42;84.42;100666.75;5048068;28;20048;-72
2022/12/05 01:52:22;;;;;;;9.75;7.97;;;;;;;2.39;84.49;100671.13;5047970;28;20140;-72
2022/12/05 01:55:25;;;;;;;10.35;7.75;;;;;;;2.26;84.93;100667.88;5048222;28;20052;-72
2022/12/05 01:58:35;;;;;;;10.48;8.40;;;;;;;2.56;83.88;100669.13;5047584;28;20609;-72
2022/12/05 02:01:40;;;;;;;9.63;6.82;;;;;;;2.25;84.77;100668.78;5048106;28;20193;-72
2022/12/05 02:05:05;;;;;;;9.07;7.05;;;;;;;2.41;84.54;100669.38;5047788;28;20113;-72
2022/12/05 02:08:10;;;;;;;9.52;6.90;;;;;;;2.44;84.89;100667.59;5047091;28;20052;-72
2022/12/05 02:11:14;;;;;;;10.77;7.72;;;;;;;2.36;84.87;100666.84;5047911;28;20094;-73
2022/12/05 02:14:42;;;;;;;9.73;6.65;;;;;;;2.14;86.33;100673.22;5047533;28;20048;-72
2022/12/05 02:18:09;;;;;;;8.35;6.70;;;;;;;2.14;86.69;100668.94;5048154;28;20553;-72
2022/12/05 02:21:38;;;;;;;8.35;6.13;;;;;;;2.32;85.40;100663.47;5047038;28;20132;-72
2022/12/05 02:25:04;;;;;;;9.15;7.15;;;;;;;2.28;85.23;100672.16;5047880;28;20055;-72
2022/12/05 02:28:26;;;;;;;9.05;6.90;;;;;;;2.34;85.25;100676.38;5048348;28;20127;-71
2022/12/05 02:31:55;;;;;;;9.57;7.03;;;;;;;2.38;85.01;100672.84;5051931;28;20117;-72
2022/12/05 02:35:12;;;;;;;10.65;6.32;;;;;;;2.47;84.53;100671.88;5051785;28;20555;-72
2022/12/05 02:38:32;;;;;;;8.50;6.63;;;;;;;2.42;84.87;100679.66;5051291;28;20047;-71
2022/12/05 02:41:50;;;;;;;8.10;6.13;;;;;;;2.50;84.70;100669.22;5051754;28;20051;-72
2022/12/05 02:45:00;;;;;;;7.55;5.65;;;;;;;2.25;85.54;100671.34;5051800;28;20102;-72
2022/12/05 02:48:05;;;;;;;9.32;5.85;;;;;;;2.43;84.66;100665.06;5053108;28;20588;-72
2022/12/05 02:51:13;;;;;;;8.18;6.30;;;;;;;2.42;84.57;100669.34;5052889;28;20505;-72
2022/12/05 02:54:23;;;;;;;7.93;6.20;;;;;;;2.61;84.36;100663.88;5054736;28;20105;-72
2022/12/05 02:57:26;;;;;;;8.13;6.35;;;;;;;2.40;84.52;100665.97;5054632;28;20098;-72
2022/12/05 03:00:30;;;;;;;7.65;5.68;;;;;;;2.61;84.26;100669.88;5054623;28;20484;-72
2022/12/05 03:03:34;;;;;;;7.93;6.20;;;;;;;2.24;85.45;100664.50;5054347;28;20571;-72
2022/12/05 03:06:41;;;;;;;8.73;6.57;;;;;;;2.48;84.66;100664.09;5054892;28;20055;-72
2022/12/05 03:09:53;;;;;;;9.85;6.88;;;;;;;2.54;84.15;100657.97;5054664;28;20067;-73
2022/12/05 03:13:05;;;;;;;7.18;5.60;;;;;;;2.36;85.00;100663.44;5054403;28;20048;-73
2022/12/05 03:16:34;;;;;;;8.07;6.10;;;;;;;2.35;85.04;100667.75;5054466;28;20051;-73
2022/12/05 03:20:03;;;;;;;7.75;5.78;;;;;;;2.37;84.80;100660.00;5054192;28;20044;-73
2022/12/05 03:23:31;;;;;;;7.43;5.28;;;;;;;2.43;85.13;100668.50;5054326;28;20071;-72
2022/12/05 03:27:00;;;;;;;8.85;6.60;;;;;;;2.34;85.08;100663.47;5034167;28;20048;-72
2022/12/05 03:30:14;;;;;;;9.05;6.18;;;;;;;2.44;84.73;100666.75;5034227;28;20124;-72
2022/12/05 03:33:22;;;;;;;9.27;7.18;;;;;;;2.22;85.38;100671.41;5034023;28;20098;-73
2022/12/05 03:36:38;;;;;;;8.35;6.00;;;;;;;2.27;85.39;100674.78;5046834;28;20043;-73
2022/12/05 03:39:48;;;;;;;7.20;5.88;;;;;;;2.33;85.22;100677.25;5053153;28;20102;-73
2022/12/05 03:42:56;;;;;;;7.43;6.15;;;;;;;2.39;85.21;100684.03;5054067;28;20121;-72
2022/12/05 03:46:28;;;;;;;7.00;5.72;;;;;;;2.40;84.96;100681.44;5053712;28;20418;-72
2022/12/05 03:50:02;;;;;;;8.32;6.57;;;;;;;2.17;85.90;100691.25;5053861;28;20489;-73
2022/12/05 03:53:12;;;;;;;9.10;6.60;;;;;;;2.32;85.63;100693.59;5053746;28;20126;-72
2022/12/05 03:56:28;;;;;;;8.07;6.22;;;;;;;2.51;85.00;100695.00;5053611;28;20087;-73
2022/12/05 03:59:39;;;;;;;10.32;6.90;;;;;;;2.45;85.08;100699.41;5053568;28;20047;-73
2022/12/05 04:03:04;;;;;;;7.80;5.55;;;;;;;2.50;84.79;100693.31;5053452;28;20130;-73
2022/12/05 04:06:32;;;;;;;7.90;6.35;;;;;;;2.42;85.07;100697.72;5053505;28;20094;-73
2022/12/05 04:09:44;;;;;;;7.25;5.45;;;;;;;2.42;85.44;100699.47;5053522;28;20048;-72
2022/12/05 04:12:50;;;;;;;9.05;6.32;;;;;;;2.55;84.79;100699.25;5052459;28;20415;-72
2022/12/05 04:21:36;;;;;;;8.40;6.22;;;;;;;2.34;86.15;100702.19;5053230;28;20091;-72
2022/12/05 04:22:53;;;;;;;8.13;6.20;;;;;;;2.36;85.78;100704.72;5053227;28;20422;-72
2022/12/05 04:26:12;;;;;;;8.57;6.15;;;;;;;2.58;85.24;100707.81;5053158;28;20047;-73
2022/12/05 04:29:28;;;;;;;10.63;7.72;;;;;;;2.40;85.35;100707.25;5053048;28;20048;-72
2022/12/05 04:33:01;;;;;;;11.10;7.75;;;;;;;2.40;85.20;100702.09;5053240;28;20124;-72
2022/12/05 04:36:16;;;;;;;8.60;5.95;;;;;;;2.32;85.87;100703.91;5053257;28;20047;-72
2022/12/05 04:39:29;;;;;;;6.80;5.20;;;;;;;2.36;85.74;100707.31;5052687;28;20144;-72
2022/12/05 04:42:35;;;;;;;8.18;5.43;;;;;;;2.36;86.19;100704.72;5053085;28;20094;-73
2022/12/05 04:45:42;;;;;;;8.70;6.68;;;;;;;2.51;85.65;100702.75;5052805;28;20056;-72
2022/12/05 04:48:51;;;;;;;11.88;6.80;;;;;;;2.46;84.80;100704.56;5052781;28;20095;-72
2022/12/05 04:51:59;;;;;;;8.52;6.20;;;;;;;2.55;85.00;100707.00;5052794;28;20083;-72
2022/12/05 04:55:12;;;;;;;9.43;7.15;;;;;;;2.63;84.54;100713.75;5052481;28;20500;-72
2022/12/05 04:58:20;;;;;;;11.48;7.85;;;;;;;2.63;84.65;100711.19;5052418;28;20055;-71
2022/12/05 05:01:36;;;;;;;9.57;6.45;;;;;;;2.53;84.87;100719.06;5052557;28;20103;-71
2022/12/05 05:04:47;;;;;;;8.70;7.00;;;;;;;2.47;85.24;100721.75;5027775;28;20281;-71
2022/12/05 05:07:52;;;;;;;11.25;7.68;;;;;;;2.32;86.02;100729.72;5028756;28;20497;-71
2022/12/05 05:11:18;;;;;;;8.75;6.65;;;;;;;2.37;86.03;100727.09;5030149;28;20639;-73
2022/12/05 05:14:22;;;;;;;10.38;6.60;;;;;;;2.42;85.84;100730.44;5028992;28;20052;-72
2022/12/05 05:17:25;;;;;;;;;;;;;;;2.42;85.40;100736.44;5041166;28;20063;-72
2022/12/05 05:20:29;;;;;;;8.30;6.50;;;;;;;2.49;85.52;100747.53;5045410;28;19944;-72
2022/12/05 05:23:32;;;;;;;9.18;6.22;;;;;;;2.47;85.66;100739.81;5028280;28;20103;-71
2022/12/05 05:26:40;;;;;;;8.52;6.85;;;;;;;2.30;85.59;100742.66;5027549;28;20052;-72
2022/12/05 05:29:43;;;;;;;8.55;6.32;;;;;;;2.24;86.09;100747.06;5027559;28;20044;-70
2022/12/05 05:32:47;;;;;;;8.98;6.65;;;;;;;2.25;86.62;100741.88;5027452;28;20050;-72
2022/12/05 05:35:51;;;;;;;8.02;6.00;;;;;;;2.24;86.66;100747.06;5027993;28;20045;-71
2022/12/05 05:38:57;;;;;;;15.48;8.23;;;;;;;2.50;85.70;100744.94;5028151;28;20163;-74
2022/12/05 05:42:00;;;;;;;12.27;7.88;;;;;;;2.40;86.05;100750.28;5028338;28;20064;-72
2022/12/05 05:45:04;;;;;;;14.77;9.15;;;;;;;2.42;86.38;100751.94;5031346;28;20056;-71
2022/12/05 05:48:07;;;;;;;30.63;13.38;;;;;;;2.51;85.35;100751.78;5044939;28;20036;-71
2022/12/05 05:51:12;;;;;;;22.10;13.57;;;;;;;2.46;85.49;100743.28;5046280;28;20040;-71
2022/12/05 05:54:15;;;;;;;20.85;12.40;;;;;;;2.57;84.78;100745.69;5046672;28;20509;-71
2022/12/05 05:57:19;;;;;;;29.88;14.18;;;;;;;2.30;86.37;100757.28;5046712;28;20051;-71
2022/12/05 06:00:27;;;;;;;21.48;11.18;;;;;;;2.48;86.20;100757.00;5033706;28;20048;-70
2022/12/05 06:03:31;;;;;;;22.05;11.85;;;;;;;2.29;86.39;100760.72;5030348;28;20099;-70
2022/12/05 06:06:36;;;;;;;18.52;10.90;;;;;;;2.21;86.10;100770.31;5052132;28;20047;-72
2022/12/05 06:09:39;;;;;;;18.35;10.73;;;;;;;2.51;85.92;100762.13;5051364;28;20040;-71
2022/12/05 06:12:46;;;;;;;13.30;9.23;;;;;;;2.50;85.67;100764.72;5051329;28;20099;-72
2022/12/05 06:15:51;;;;;;;12.40;9.70;;;;;;;2.36;86.08;100776.97;5030362;28;20053;-73
2022/12/05 06:18:55;;;;;;;11.77;7.90;;;;;;;2.34;85.86;100777.00;5031409;28;20048;-71
2022/12/05 06:21:58;;;;;;;;;;;;;;;2.34;86.32;100777.00;5031718;28;20506;-71
2022/12/05 06:25:02;;;;;;;14.75;8.75;;;;;;;2.54;85.50;100772.41;5031399;28;19966;-73
2022/12/05 06:28:05;;;;;;;13.70;8.35;;;;;;;2.53;85.98;100777.59;5031071;28;20399;-73
2022/12/05 06:31:19;;;;;;;12.45;8.02;;;;;;;2.56;85.55;100775.81;5030628;28;20242;-73
2022/12/05 06:34:22;;;;;;;12.30;8.23;;;;;;;2.61;84.85;100770.56;5031326;28;20438;-71
2022/12/05 06:37:25;;;;;;;13.43;8.55;;;;;;;2.65;84.83;100776.53;5029926;28;20040;-71
2022/12/05 06:40:29;;;;;;;12.52;8.68;;;;;;;2.48;85.54;100777.66;5030213;28;20422;-73
2022/12/05 06:43:32;;;;;;;;;;;;;;;2.27;86.75;100777.97;5030449;28;20091;-76
2022/12/05 06:46:36;;;;;;;12.65;7.68;;;;;;;2.30;86.60;100785.69;5030779;28;19951;-77
2022/12/05 06:50:36;;;;;;;12.32;7.18;;;;;;;2.39;86.11;100789.84;5030935;28;20048;-76
2022/12/05 06:53:42;;;;;;;11.52;6.97;;;;;;;2.27;86.81;100793.47;5028785;28;20053;-76
2022/12/05 06:56:46;;;;;;;16.00;8.57;;;;;;;2.18;87.28;100791.00;5033228;28;20417;-76
2022/12/05 06:59:49;;;;;;;12.25;8.05;;;;;;;2.49;85.83;100787.13;5049921;28;20513;-73
2022/12/05 07:02:53;;;;;;;14.60;9.43;;;;;;;2.55;85.54;100788.72;5050422;28;20060;-72
2022/12/05 07:06:00;;;;;;;14.52;10.35;;;;;;;2.51;85.42;100787.06;5050863;28;20066;-73
2022/12/05 07:09:03;;;;;;;18.40;9.73;;;;;;;2.41;85.98;100796.69;5050467;28;20052;-73
2022/12/05 07:12:06;;;;;;;17.30;10.05;;;;;;;2.44;85.91;100796.66;5049379;28;20102;-73
2022/12/05 07:15:10;;;;;;;15.13;9.32;;;;;;;2.49;86.17;100802.59;5042894;28;20027;-73
2022/12/05 07:18:15;;;;;;;16.13;10.43;;;;;;;2.63;85.38;100801.53;5049244;28;20469;-71
2022/12/05 07:21:21;;;;;;;16.15;9.63;;;;;;;2.63;85.18;100801.53;5048552;28;20059;-72
2022/12/05 07:24:25;;;;;;;19.45;11.40;;;;;;;2.67;84.68;100798.88;5048296;28;20075;-71
2022/12/05 07:27:29;;;;;;;36.83;25.92;;;;;;;2.42;85.88;100806.13;5049186;28;20044;-71
2022/12/05 07:30:32;;;;;;;31.25;22.80;;;;;;;2.46;86.15;100807.81;5049497;28;20090;-71
2022/12/05 07:33:36;;;;;;;13.57;9.82;;;;;;;2.27;86.63;100806.38;5048890;28;20048;-72
2022/12/05 07:36:39;;;;;;;17.88;13.00;;;;;;;2.54;85.81;100815.44;5048688;28;20122;-72
2022/12/05 07:39:42;;;;;;;27.55;17.90;;;;;;;2.56;85.58;100821.44;5043445;28;20510;-73
2022/12/05 07:42:49;;;;;;;26.70;16.00;;;;;;;2.50;86.16;100822.38;5029706;28;20103;-74
2022/12/05 07:45:52;;;;;;;17.80;9.45;;;;;;;2.35;86.87;100817.41;5036690;28;20040;-73
2022/12/05 07:48:56;;;;;;;15.23;9.45;;;;;;;2.47;86.32;100821.56;5030053;28;20568;-73
2022/12/05 07:51:59;;;;;;;13.95;8.70;;;;;;;2.47;86.28;100826.72;5029557;28;20099;-74
2022/12/05 07:55:03;;;;;;;16.10;10.05;;;;;;;2.62;85.57;100815.34;5027819;28;20084;-73
2022/12/05 07:58:06;;;;;;;14.45;9.68;;;;;;;2.35;86.88;100824.31;5028829;28;20076;-73
2022/12/05 08:01:11;;;;;;;;;;;;;;;2.51;86.35;100820.63;5029235;28;20114;-73
2022/12/05 08:04:14;;;;;;;11.45;7.90;;;;;;;2.64;86.19;100823.88;5028923;28;20294;-73
2022/12/05 08:07:18;;;;;;;15.50;9.63;;;;;;;2.66;86.11;100827.31;5029354;28;20052;-73
2022/12/05 08:10:21;;;;;;;17.92;11.10;;;;;;;2.73;85.05;100832.34;5029428;28;20075;-73
2022/12/05 08:13:25;;;;;;;;;;;;;;;2.47;86.07;100832.72;5029359;28;20105;-70
2022/12/05 08:16:29;;;;;;;15.98;11.60;;;;;;;2.59;86.09;100842.03;5028460;28;20006;-73
2022/12/05 08:19:32;;;;;;;20.75;12.38;;;;;;;2.82;85.40;100839.13;5032276;28;20044;-74
2022/12/05 08:22:36;;;;;;;20.25;14.88;;;;;;;2.70;85.69;100849.63;5041626;28;20051;-73
2022/12/05 08:25:39;;;;;;;19.00;13.60;;;;;;;2.75;85.83;100853.00;5028939;28;20560;-73
2022/12/05 08:28:43;;;;;;;15.02;11.93;;;;;;;2.66;86.17;100853.13;5029065;28;20048;-73
2022/12/05 08:31:49;;;;;;;14.10;10.73;;;;;;;2.56;86.11;100863.59;5028243;28;20134;-73
2022/12/05 08:34:52;;;;;;;17.45;10.20;;;;;;;2.71;85.87;100862.53;5028284;28;20071;-73
2022/12/05 08:37:57;;;;;;;15.35;9.60;;;;;;;2.53;86.39;100873.94;5027544;28;20052;-74
2022/12/05 08:41:05;;;;;;;13.18;8.20;;;;;;;2.54;86.66;100882.53;5027971;28;20048;-74
2022/12/05 08:44:14;;;;;;;12.88;8.27;;;;;;;2.49;86.72;100885.19;5028281;28;20413;-74
2022/12/05 08:47:18;;;;;;;12.65;8.55;;;;;;;2.61;86.17;100896.22;5027486;28;20052;-73
2022/12/05 08:50:21;;;;;;;11.40;8.30;;;;;;;2.62;86.53;100903.13;5028400;28;20044;-73
2022/12/05 08:53:25;;;;;;;15.85;8.48;;;;;;;2.80;85.76;100905.41;5029702;28;20049;-72
2022/12/05 08:56:46;;;;;;;;;;;;;;;2.85;85.48;100913.97;5036094;28;20119;-74
2022/12/05 09:00:25;;;;;;;12.10;9.00;;;;;;;2.72;86.00;100918.44;5027879;28;20087;-79
2022/12/05 09:03:35;;;;;;;13.90;9.50;;;;;;;2.78;85.50;100905.44;5025903;28;20119;-76
2022/12/05 09:06:40;;;;;;;15.13;10.27;;;;;;;2.63;86.10;100908.25;5041085;28;20060;-79
2022/12/05 09:09:43;;;;;;;11.45;8.48;;;;;;;2.63;86.19;100912.56;5048119;28;20552;-79
2022/12/05 09:12:49;;;;;;;8.70;7.15;;;;;;;2.52;87.35;100907.50;5047510;28;20067;-79
2022/12/05 09:15:54;;;;;;;16.38;12.45;;;;;;;2.93;86.31;100895.75;5047929;28;20504;-78
2022/12/05 09:18:57;;;;;;;13.60;10.40;;;;;;;2.77;86.21;100902.88;5047005;28;20036;-78
2022/12/05 09:22:05;;;;;;;14.98;10.45;;;;;;;2.82;86.18;100908.00;5028671;28;20052;-78
2022/12/05 09:25:08;;;;;;;14.40;10.63;;;;;;;2.92;85.84;100913.00;5028730;28;20044;-77
2022/12/05 09:28:13;;;;;;;18.45;11.88;;;;;;;2.92;87.66;100909.56;5025499;28;20076;-72
2022/12/05 09:31:19;;;;;;;17.65;12.93;;;;;;;3.10;85.60;100917.03;5026016;28;20529;-73
2022/12/05 09:34:24;;;;;;;24.95;16.70;;;;;;;3.02;85.04;100930.06;5032793;28;20543;-72
2022/12/05 09:37:28;;;;;;;24.92;15.70;;;;;;;2.93;85.27;100925.03;5042831;28;20056;-73
2022/12/05 09:40:31;;;;;;;22.88;15.35;;;;;;;2.98;85.10;100922.38;5047269;28;20114;-72
2022/12/05 09:44:21;;;;;;;13.27;10.18;;;;;;;2.98;85.21;100933.56;5047131;28;20044;-72
2022/12/05 09:47:31;;;;;;;13.93;9.23;;;;;;;2.99;85.59;100934.41;5044918;28;20048;-73
2022/12/05 09:50:40;;;;;;;14.15;9.90;;;;;;;3.10;84.80;100935.13;5026703;28;20044;-73
2022/12/05 09:53:45;;;;;;;13.10;8.75;;;;;;;3.08;84.84;100936.88;5027760;28;20052;-73
2022/12/05 09:56:51;;;;;;;10.90;6.90;;;;;;;3.11;84.98;100929.06;5027365;28;20250;-73
2022/12/05 09:59:55;;;;;;;9.48;6.97;;;;;;;3.08;84.40;100928.28;5026042;28;20104;-73
2022/12/05 10:03:17;;;;;;;10.70;6.88;;;;;;;3.16;84.71;100926.41;5024523;28;20063;-72
2022/12/05 10:06:27;;;;;;;9.32;5.75;;;;;;;3.08;84.27;100917.94;5025880;28;20071;-72
2022/12/05 10:09:38;;;;;;;7.68;6.18;;;;;;;3.02;84.91;100917.13;5042752;28;20094;-72
2022/12/05 10:12:42;;;;;;;8.02;5.57;;;;;;;3.10;84.73;100919.63;5045549;28;20161;-72
2022/12/05 10:16:14;;;;;;;8.50;6.22;;;;;;;3.23;84.38;100921.13;5047685;28;20099;-72
2022/12/05 10:19:48;;;;;;;9.95;6.65;;;;;;;3.09;84.35;100915.31;5047283;28;20051;-72
2022/12/05 10:22:56;;;;;;;;;;;;;;;3.14;84.71;100915.25;5047419;28;20056;-72
2022/12/05 10:26:10;;;;;;;9.65;6.97;;;;;;;3.27;83.75;100919.34;5046022;28;20019;-72
2022/12/05 10:29:17;;;;;;;11.15;7.53;;;;;;;3.16;84.44;100918.66;5046752;28;20442;-72
2022/12/05 10:32:36;;;;;;;15.45;9.38;;;;;;;3.35;84.39;100907.19;5032680;28;20091;-73
2022/12/05 10:35:40;;;;;;;12.57;9.80;;;;;;;3.30;84.38;100911.56;5027737;28;20051;-72
2022/12/05 10:38:45;;;;;;;12.90;9.48;;;;;;;3.24;85.12;100903.91;5027736;28;20064;-72
2022/12/05 10:41:48;;;;;;;12.77;9.93;;;;;;;3.29;84.40;100908.97;5026680;28;20543;-72
2022/12/05 10:45:36;;;;;;;14.70;10.48;;;;;;;3.46;83.94;100905.25;5025723;28;20331;-72
2022/12/05 10:48:40;;;;;;;13.65;9.68;;;;;;;3.32;84.44;100906.34;5024681;28;20044;-73
2022/12/05 10:51:46;;;;;;;11.63;9.10;;;;;;;3.34;84.62;100905.44;5027673;28;20127;-73
2022/12/05 10:55:05;;;;;;;10.27;7.70;;;;;;;3.35;83.21;100902.00;5029850;28;20056;-73
2022/12/05 10:58:12;;;;;;;11.23;8.38;;;;;;;3.45;83.51;100893.22;5029654;28;20524;-72
2022/12/05 11:01:15;;;;;;;9.27;6.68;;;;;;;3.57;82.92;100896.44;5028011;28;20351;-72
2022/12/05 11:04:40;;;;;;;9.75;6.97;;;;;;;3.65;83.02;100895.44;5029474;28;20071;-73
2022/12/05 11:07:43;;;;;;;11.43;8.02;;;;;;;3.55;83.37;100898.22;5028143;28;20394;-73
2022/12/05 11:10:46;;;;;;;;;;;;;;;3.68;83.09;100897.97;5030157;28;20060;-73
2022/12/05 11:13:58;;;;;;;14.25;8.63;;;;;;;3.73;83.19;100903.06;5029174;28;19924;-73
2022/12/05 11:17:04;;;;;;;;;;;;;;;3.62;83.00;100894.66;5030343;28;20055;-73
2022/12/05 11:20:16;;;;;;;10.65;7.72;;;;;;;3.85;82.83;100891.63;5041961;28;19923;-73
2022/12/05 11:23:28;;;;;;;9.85;8.13;;;;;;;3.90;82.20;100895.00;5049554;28;20055;-73
2022/12/05 11:26:36;;;;;;;9.65;7.93;;;;;;;3.88;82.84;100887.25;5050072;28;20048;-73
2022/12/05 11:29:41;;;;;;;9.98;7.72;;;;;;;3.89;82.70;100882.94;5034389;28;20091;-73
2022/12/05 11:32:45;;;;;;;8.73;6.82;;;;;;;3.95;81.87;100877.63;5029556;28;20046;-74
2022/12/05 11:35:52;;;;;;;9.63;7.05;;;;;;;4.05;81.57;100880.91;5029438;28;20044;-73
2022/12/05 11:38:57;;;;;;;11.07;8.13;;;;;;;4.02;82.33;100880.97;5030086;28;20106;-73
2022/12/05 11:42:22;;;;;;;8.60;7.18;;;;;;;4.00;82.16;100878.41;5030012;28;20055;-73
2022/12/05 11:45:36;;;;;;;9.30;6.95;;;;;;;4.17;82.09;100878.91;5029088;28;20102;-73
2022/12/05 11:49:04;;;;;;;8.98;7.32;;;;;;;4.04;83.12;100886.97;5028956;28;20135;-73
2022/12/05 11:52:46;;;;;;;9.95;7.07;;;;;;;4.21;82.56;100892.66;5029897;28;20039;-75
2022/12/05 11:55:52;;;;;;;12.27;9.48;;;;;;;4.38;82.57;100898.34;5029633;28;20087;-75
2022/12/05 11:59:07;;;;;;;12.20;9.45;;;;;;;3.48;87.68;100898.34;5044771;28;20098;-69
2022/12/05 12:02:30;;;;;;;8.80;7.38;;;;;;;3.54;87.51;100891.34;5050037;28;20079;-72
2022/12/05 12:05:34;;;;;;;;;;;;;;;3.86;85.99;100889.03;5052913;28;20052;-76
2022/12/05 12:09:32;;;;;;;9.50;7.70;;;;;;;4.01;85.30;100881.84;5047331;28;19923;-76
2022/12/05 12:13:29;;;;;;;13.13;10.43;;;;;;;4.01;84.18;100894.78;5032699;28;20076;-75
2022/12/05 12:17:06;;;;;;;13.38;10.25;;;;;;;4.06;84.60;100891.25;5052222;28;20094;-80
2022/12/05 12:20:12;;;;;;;8.93;7.10;;;;;;;3.80;85.28;100902.09;5058011;28;20422;-80
2022/12/05 12:23:34;;;;;;;9.82;8.20;;;;;;;3.57;86.60;100905.06;5055477;28;20564;-80
2022/12/05 12:26:43;;;;;;;10.48;8.65;;;;;;;3.68;86.62;100900.56;5046368;28;20410;-80
2022/12/05 12:29:46;;;;;;;11.95;9.88;;;;;;;3.93;85.79;100900.13;5050419;28;20102;-80
2022/12/05 12:33:01;;;;;;;;;;;;;;;3.94;84.81;100896.66;5048836;28;20394;-81
2022/12/05 12:36:15;;;;;;;10.90;8.15;;;;;;;4.19;84.19;100899.63;5040671;28;19966;-81
2022/12/05 12:39:37;;;;;;;8.55;7.00;;;;;;;4.18;83.53;100892.75;5056822;28;20060;-80
2022/12/05 12:43:05;;;;;;;8.48;6.57;;;;;;;4.01;83.78;100893.06;5056005;28;20512;-80
2022/12/05 12:46:23;;;;;;;10.15;6.80;;;;;;;3.88;85.15;100889.84;5046253;28;20043;-82
2022/12/05 12:49:26;;;;;;;9.77;7.43;;;;;;;3.80;86.51;100889.16;5047226;28;20052;-79
2022/12/05 12:52:45;;;;;;;8.75;7.35;;;;;;;3.91;85.15;100891.53;5041964;28;20186;-80
2022/12/05 12:56:10;;;;;;;10.48;7.40;;;;;;;4.13;84.74;100884.19;5036191;28;20048;-81
2022/12/05 12:59:34;;;;;;;10.75;7.93;;;;;;;4.00;86.22;100886.19;5031346;28;20039;-79
2022/12/05 13:03:12;;;;;;;8.77;7.50;;;;;;;4.21;85.86;100884.88;5031625;28;20453;-82
2022/12/05 13:06:22;;;;;;;11.50;8.18;;;;;;;4.20;85.12;100888.38;5030390;28;20099;-75
2022/12/05 13:09:25;;;;;;;10.52;8.05;;;;;;;4.24;85.28;100887.41;5045317;28;20226;-76
2022/12/05 13:12:36;;;;;;;10.30;6.90;;;;;;;4.30;84.64;100892.47;5036388;28;20112;-76
2022/12/05 13:15:46;;;;;;;12.48;8.85;;;;;;;4.20;85.14;100883.19;5037133;28;20136;-74
2022/12/05 13:18:50;;;;;;;11.10;8.65;;;;;;;4.33;84.95;100879.47;5039208;28;20043;-75
2022/12/05 13:21:56;;;;;;;10.10;7.78;;;;;;;4.28;84.99;100875.28;5034669;28;20119;-76
2022/12/05 13:24:59;;;;;;;11.07;8.95;;;;;;;4.33;85.50;100881.19;5046781;28;20125;-77
2022/12/05 13:28:05;;;;;;;9.98;7.25;;;;;;;4.46;85.59;100874.03;5039574;28;20102;-75
2022/12/05 13:31:09;;;;;;;10.35;7.78;;;;;;;4.30;86.21;100884.69;5037424;28;20098;-77
2022/12/05 13:34:28;;;;;;;9.80;8.13;;;;;;;4.42;85.78;100892.22;5048615;28;20325;-78
2022/12/05 13:44:32;;;;;;;8.30;7.30;;;;;;;4.37;87.15;100895.78;5051980;28;20102;-78
2022/12/05 13:47:59;;;;;;;8.63;7.00;;;;;;;4.33;86.73;100895.00;5051700;28;20044;-78
2022/12/05 13:51:33;;;;;;;9.35;6.30;;;;;;;4.37;87.38;100895.78;5051664;28;20142;-79
2022/12/05 13:54:44;;;;;;;7.28;6.20;;;;;;;4.29;86.66;100902.88;5051683;28;20052;-75
2022/12/05 13:57:51;;;;;;;10.65;6.70;;;;;;;4.21;87.39;100900.41;5051680;28;20095;-76
2022/12/05 14:01:32;;;;;;;8.63;6.80;;;;;;;4.38;86.85;100900.94;5051450;28;20114;-77
2022/12/05 14:04:52;;;;;;;9.85;7.18;;;;;;;4.34;86.53;100896.72;5051361;28;20120;-78
2022/12/05 14:07:58;;;;;;;9.63;7.28;;;;;;;4.45;86.69;100903.41;5051622;28;20110;-78
2022/12/05 14:11:08;;;;;;;10.10;7.55;;;;;;;4.47;86.79;100906.78;5051440;28;20044;-78
2022/12/05 14:14:11;;;;;;;11.68;8.43;;;;;;;4.16;88.36;100902.25;5051498;28;20051;-77
2022/12/05 14:17:17;;;;;;;;;;;;;;;4.21;88.33;100897.81;5052215;28;20557;-78
2022/12/05 14:20:56;;;;;;;8.43;7.03;;;;;;;4.39;87.71;100900.03;5051312;28;20058;-78
2022/12/05 14:24:21;;;;;;;8.07;6.68;;;;;;;4.22;88.05;100901.28;5051899;28;20513;-77
2022/12/05 14:27:42;;;;;;;8.27;6.40;;;;;;;4.15;88.26;100905.75;5054792;28;20086;-76
2022/12/05 14:31:18;;;;;;;49.20;29.30;;;;;;;4.15;88.52;100908.31;5055568;28;20055;-77
2022/12/05 14:34:28;;;;;;;14.13;10.73;;;;;;;4.34;88.02;100914.84;5054451;28;20076;-78
2022/12/05 14:37:40;;;;;;;9.23;7.28;;;;;;;4.40;87.36;100911.25;5055209;28;20054;-76
2022/12/05 14:40:46;;;;;;;9.85;7.90;;;;;;;4.36;87.49;100918.22;5054202;28;20071;-77
2022/12/05 14:43:55;;;;;;;8.88;7.05;;;;;;;4.37;87.14;100917.38;5055286;28;20134;-75
2022/12/05 14:47:05;;;;;;;7.80;6.45;;;;;;;4.07;88.94;100916.22;5065657;28;20113;-76
2022/12/05 14:50:39;;;;;;;9.30;6.13;;;;;;;4.16;88.40;100917.78;5054305;28;20048;-76
2022/12/05 14:53:43;;;;;;;10.52;6.90;;;;;;;4.25;88.05;100917.59;5053993;28;20047;-76
2022/12/05 14:57:01;;;;;;;9.80;6.70;;;;;;;4.28;87.72;100914.97;5055042;28;20044;-76
2022/12/05 15:00:06;;;;;;;7.78;6.43;;;;;;;4.20;88.79;100915.09;5054862;28;20052;-76
2022/12/05 15:03:20;;;;;;;8.45;5.65;;;;;;;4.14;89.19;100919.53;5054498;28;20190;-75